createdAt,value
2023-08-29T00:02:00.390Z,37.17
2023-08-29T00:07:02.297Z,37.42
2023-08-29T00:12:04.899Z,37.51
2023-08-29T00:17:07.764Z,38.58
2023-08-29T00:22:10.056Z,39.21
2023-08-29T00:27:12.153Z,40.17
2023-08-29T00:32:15.265Z,40.64
2023-08-29T00:37:17.730Z,41.36
2023-08-29T00:42:19.708Z,41.69
2023-08-29T00:47:21.756Z,41.92
2023-08-29T00:52:25.456Z,42.50
2023-08-29T00:57:28.240Z,42.40
2023-08-29T01:02:30.518Z,42.15
2023-08-29T01:07:32.530Z,42.12
2023-08-29T01:12:59.502Z,42.19
2023-08-29T01:18:05.739Z,41.77
2023-08-29T01:23:14.579Z,42.07
2023-08-29T01:28:17.650Z,41.97
2023-08-29T01:33:20.850Z,41.88
2023-08-29T01:38:23.087Z,42.22
2023-08-29T01:43:25.135Z,42.17
2023-08-29T01:48:27.764Z,42.31
2023-08-29T01:53:30.538Z,42.83
2023-08-29T01:58:32.719Z,42.90
2023-08-29T02:03:34.761Z,43.18
2023-08-29T02:08:39.096Z,43.50
2023-08-29T02:13:42.259Z,43.26
2023-08-29T02:18:44.151Z,43.63
2023-08-29T02:23:47.602Z,43.31
2023-08-29T02:28:53.215Z,43.69
2023-08-29T02:33:55.355Z,43.60
2023-08-29T02:38:57.488Z,44.04
2023-08-29T02:43:59.443Z,44.20
2023-08-29T02:49:01.469Z,44.39
2023-08-29T02:54:03.530Z,43.97
2023-08-29T02:59:05.578Z,44.23
2023-08-29T03:04:08.089Z,44.73
2023-08-29T03:09:11.671Z,45.49
2023-08-29T03:14:15.049Z,44.82
2023-08-29T03:19:17.126Z,46.26
2023-08-29T03:24:19.619Z,45.72
2023-08-29T03:29:21.717Z,46.53
2023-08-29T03:34:24.288Z,45.97
2023-08-29T03:39:27.468Z,46.39
2023-08-29T03:44:29.506Z,46.59
2023-08-29T03:49:33.327Z,46.83
2023-08-29T03:54:35.346Z,47.01
2023-08-29T03:59:37.459Z,46.01
2023-08-29T04:04:40.125Z,46.74
2023-08-29T04:09:42.088Z,49.31
2023-08-29T04:14:44.054Z,47.86
2023-08-29T04:19:46.730Z,47.73
2023-08-29T04:24:49.890Z,48.17
2023-08-29T04:29:52.025Z,47.70
2023-08-29T04:34:54.135Z,48.04
2023-08-29T04:39:56.231Z,47.61
2023-08-29T04:44:59.316Z,47.61
2023-08-29T04:50:02.073Z,48.65
2023-08-29T04:55:06.808Z,48.79
2023-08-29T05:00:10.838Z,49.15
2023-08-29T05:05:12.945Z,49.22
2023-08-29T05:10:16.152Z,49.51
2023-08-29T05:15:18.304Z,48.94
2023-08-29T05:20:22.536Z,49.68
2023-08-29T05:25:24.623Z,49.05
2023-08-29T05:30:26.635Z,49.06
2023-08-29T05:35:28.602Z,49.91
2023-08-29T05:40:33.233Z,49.18
2023-08-29T05:45:36.379Z,49.61
2023-08-29T05:50:42.093Z,49.69
2023-08-29T05:55:44.231Z,49.60
2023-08-29T06:00:46.332Z,50.53
2023-08-29T06:05:51.210Z,49.96
2023-08-29T06:10:53.643Z,50.51
2023-08-29T06:15:55.581Z,48.44
2023-08-29T06:20:57.619Z,48.93
2023-08-29T06:25:59.730Z,48.92
2023-08-29T06:31:08.256Z,48.95
2023-08-29T06:36:11.061Z,49.28
2023-08-29T06:41:13.174Z,48.89
2023-08-29T06:46:15.645Z,49.05
2023-08-29T06:51:17.810Z,49.74
2023-08-29T06:56:20.128Z,49.07
2023-08-29T07:01:22.397Z,49.53
2023-08-29T07:06:24.519Z,49.68
2023-08-29T07:11:26.486Z,49.73
2023-08-29T07:16:28.457Z,48.61
2023-08-29T07:21:30.355Z,48.34
2023-08-29T07:26:32.684Z,47.63
2023-08-29T07:31:36.397Z,46.55
2023-08-29T07:36:40.581Z,45.90
2023-08-29T07:41:42.719Z,45.63
2023-08-29T07:46:57.568Z,46.00
2023-08-29T07:52:06.743Z,46.11
2023-08-29T07:57:09.248Z,45.57
2023-08-29T08:02:11.441Z,45.78
2023-08-29T08:07:13.682Z,45.36
2023-08-29T08:12:15.703Z,45.37
2023-08-29T08:17:17.766Z,44.72
2023-08-29T08:22:19.986Z,43.01
2023-08-29T08:27:22.111Z,43.60
2023-08-29T08:32:24.644Z,42.31
2023-08-29T08:37:26.679Z,43.82
2023-08-29T08:42:30.674Z,43.48
2023-08-29T08:47:38.231Z,40.45
2023-08-29T08:52:42.509Z,40.64
2023-08-29T08:57:44.771Z,39.62
2023-08-29T09:02:47.134Z,38.88
2023-08-29T09:07:49.121Z,34.55
2023-08-29T09:12:53.170Z,34.47
2023-08-29T09:17:55.730Z,32.64
2023-08-29T09:22:58.333Z,33.20
2023-08-29T09:28:00.458Z,30.70
2023-08-29T09:33:09.279Z,31.58
2023-08-29T09:38:11.588Z,28.18
2023-08-29T09:43:15.002Z,27.86
2023-08-29T09:48:17.581Z,27.14
2023-08-29T09:53:21.172Z,27.19
2023-08-29T09:58:25.116Z,28.06
2023-08-29T10:03:27.619Z,30.54
2023-08-29T10:08:47.503Z,27.11
2023-08-29T10:13:49.658Z,28.42
2023-08-29T10:18:52.330Z,28.75
2023-08-29T10:23:54.699Z,27.15
2023-08-29T10:28:57.527Z,27.21
2023-08-29T10:33:59.900Z,26.23
2023-08-29T10:39:02.199Z,28.89
2023-08-29T10:44:30.374Z,28.53
2023-08-29T10:49:45.310Z,26.49
2023-08-29T10:54:47.602Z,27.13
2023-08-29T10:59:49.743Z,27.67
2023-08-29T11:04:56.358Z,29.74
2023-08-29T11:10:21.636Z,28.45
2023-08-29T11:15:23.522Z,28.16
2023-08-29T11:20:25.668Z,28.72
2023-08-29T11:25:27.808Z,28.46
2023-08-29T11:30:38.857Z,28.13
2023-08-29T11:35:45.675Z,27.78
2023-08-29T11:40:59.985Z,28.73
2023-08-29T11:46:09.594Z,27.72
2023-08-29T11:51:11.820Z,29.00
2023-08-29T11:56:13.894Z,29.18
2023-08-29T12:01:16.127Z,29.69
2023-08-29T12:06:18.253Z,30.86
2023-08-29T12:11:20.403Z,31.15
2023-08-29T12:16:23.028Z,30.68
2023-08-29T12:21:25.004Z,30.96
2023-08-29T12:26:26.892Z,31.00
2023-08-29T12:31:28.882Z,32.17
2023-08-29T12:36:31.232Z,30.55
2023-08-29T12:41:33.512Z,31.83
2023-08-29T12:46:35.923Z,30.29
2023-08-29T12:51:38.041Z,30.38
2023-08-29T12:56:39.960Z,31.00
2023-08-29T13:01:41.983Z,31.50
2023-08-29T13:06:44.273Z,31.76
2023-08-29T13:11:47.924Z,30.61
2023-08-29T13:16:50.475Z,29.74
2023-08-29T13:21:53.012Z,30.35
2023-08-29T13:26:54.878Z,30.22
2023-08-29T13:31:57.514Z,30.24
2023-08-29T13:36:59.606Z,30.36
2023-08-29T13:42:01.598Z,30.97
2023-08-29T13:47:04.232Z,31.01
2023-08-29T13:52:09.528Z,29.83
2023-08-29T13:57:11.530Z,29.74
2023-08-29T14:02:14.267Z,29.90
2023-08-29T14:07:17.817Z,29.55
2023-08-29T14:12:19.820Z,30.95
2023-08-29T14:17:21.890Z,31.32
2023-08-29T14:22:27.414Z,30.45
2023-08-29T14:27:29.473Z,30.42
2023-08-29T14:32:31.833Z,30.37
2023-08-29T14:37:34.014Z,29.57
2023-08-29T14:42:36.089Z,29.72
2023-08-29T14:47:38.176Z,29.80
2023-08-29T14:52:41.623Z,28.40
2023-08-29T14:57:43.748Z,29.27
2023-08-29T15:02:46.349Z,29.56
2023-08-29T15:07:48.659Z,28.58
2023-08-29T15:12:50.799Z,28.63
2023-08-29T15:17:53.054Z,28.93
2023-08-29T15:22:55.123Z,28.55
2023-08-29T15:27:57.542Z,28.42
2023-08-29T15:33:00.073Z,29.23
2023-08-29T15:38:02.226Z,29.25
2023-08-29T15:43:05.246Z,29.21
2023-08-29T15:48:07.614Z,29.14
2023-08-29T15:53:09.893Z,29.47
2023-08-29T15:58:14.854Z,28.95
2023-08-29T16:03:17.885Z,28.45
2023-08-29T16:08:20.038Z,28.02
2023-08-29T16:13:22.078Z,29.22
2023-08-29T16:18:24.802Z,28.67
2023-08-29T16:23:26.975Z,28.83
2023-08-29T16:28:29.471Z,28.28
2023-08-29T16:33:31.552Z,28.69
2023-08-29T16:38:34.400Z,28.57
2023-08-29T16:43:36.407Z,28.36
2023-08-29T16:48:38.514Z,28.79
2023-08-29T16:53:40.582Z,28.98
2023-08-29T16:58:42.507Z,28.56
2023-08-29T17:03:44.635Z,29.33
2023-08-29T17:08:46.908Z,29.09
2023-08-29T17:13:49.543Z,29.35
2023-08-29T17:18:51.468Z,29.35
2023-08-29T17:23:53.384Z,29.69
2023-08-29T17:28:55.364Z,29.49
2023-08-29T17:33:57.348Z,29.71
2023-08-29T17:38:59.405Z,29.61
2023-08-29T17:44:01.830Z,29.47
2023-08-29T17:49:04.460Z,29.24
2023-08-29T17:54:06.814Z,29.25
2023-08-29T17:59:08.961Z,29.14
2023-08-29T18:11:36.285Z,29.40
2023-08-29T18:16:38.564Z,29.22
2023-08-29T18:21:40.653Z,29.30
2023-08-29T18:26:42.717Z,29.76
2023-08-29T18:31:44.966Z,29.76
2023-08-29T18:36:46.986Z,29.81
2023-08-29T18:41:49.072Z,29.91
2023-08-29T18:46:51.400Z,29.57
2023-08-29T18:51:53.463Z,30.07
2023-08-29T18:56:55.547Z,29.24
2023-08-29T19:02:02.384Z,29.12
2023-08-29T19:07:05.005Z,29.35
2023-08-29T19:12:07.444Z,29.94
2023-08-29T19:17:09.561Z,29.79
2023-08-29T19:22:12.956Z,30.45
2023-08-29T19:27:22.655Z,30.46
2023-08-29T19:32:27.355Z,30.69
2023-08-29T19:37:30.119Z,31.06
2023-08-29T19:42:32.132Z,30.72
2023-08-29T19:47:34.985Z,31.92
2023-08-29T19:52:37.151Z,31.83
2023-08-29T19:57:39.245Z,31.80
2023-08-29T20:02:41.546Z,32.55
2023-08-29T20:07:44.807Z,32.50
2023-08-29T20:12:49.778Z,32.35
2023-08-29T20:17:51.909Z,32.73
2023-08-29T20:22:53.895Z,32.36
2023-08-29T20:27:55.807Z,32.94
2023-08-29T20:32:58.505Z,33.14
2023-08-29T20:38:00.571Z,32.87
2023-08-29T20:43:02.805Z,33.15
2023-08-29T20:48:05.427Z,33.79
2023-08-29T20:53:07.733Z,33.50
2023-08-29T20:58:10.057Z,34.08
2023-08-29T21:03:12.372Z,33.98
2023-08-29T21:08:14.417Z,33.91
2023-08-29T21:13:18.036Z,34.18
2023-08-29T21:18:20.695Z,34.48
2023-08-29T21:23:23.608Z,34.38
2023-08-29T21:28:26.894Z,34.84
2023-08-29T21:33:28.955Z,35.01
2023-08-29T21:38:34.260Z,34.93
2023-08-29T21:43:36.702Z,35.52
2023-08-29T21:48:38.802Z,35.29
2023-08-29T21:53:40.883Z,35.69
2023-08-29T21:58:44.272Z,36.08
2023-08-29T22:03:46.090Z,35.86
2023-08-29T22:08:48.408Z,35.88
2023-08-29T22:13:50.418Z,36.13
2023-08-29T22:18:52.612Z,36.08
2023-08-29T22:23:54.768Z,36.18
2023-08-29T22:28:56.946Z,36.31
2023-08-29T22:33:58.883Z,36.74
2023-08-29T22:39:01.060Z,36.74
2023-08-29T22:44:05.716Z,36.79
2023-08-29T22:49:07.838Z,37.19
2023-08-29T22:54:09.841Z,37.80
2023-08-29T22:59:11.928Z,37.98
2023-08-29T23:04:13.921Z,38.37
2023-08-29T23:09:16.042Z,38.63
2023-08-29T23:14:24.896Z,38.92
2023-08-29T23:19:27.077Z,39.21
2023-08-29T23:24:29.282Z,39.37
2023-08-29T23:29:34.068Z,39.54
2023-08-29T23:34:37.233Z,39.90
2023-08-29T23:39:40.451Z,39.88
2023-08-29T23:44:42.484Z,39.83
2023-08-29T23:49:46.012Z,39.57
2023-08-29T23:54:48.124Z,39.92
2023-08-29T23:59:50.447Z,40.17
